Terminal Aerodrome Forecast
Issued by NWS

Current Version | Previous Version | Text Only | Print | Product List | Glossary On
Versions: 1 2 3 4 5 6 7 8 9 10 11 12 13 14
819
FTUS46 KSGX 061736
TAFONT
TAF
KONT 061736Z 0618/0724 VRB06KT P6SM SKC WS020/03030KT
     FM062000 27010KT P6SM SKC
     FM070300 VRB05KT P6SM SKC
     FM071300 VRB05KT P6SM SKC WS020/03025KT
     FM071800 04020G30KT P6SM SKC=

USA.gov is the U.S. government's official web portal to all federal, state and local government web resources and services.